Wales, Michigan
Current Conditions -  °F | °C
As of 8:16 AM on Thursday 30 Oct 2014 (Local Time) from KPHN Reporting Station
Clear Clear  
Wind Chill:   Ceiling: Unl
Heat Index:   Visibility: 10mi
Dew Point: -1°   Wind: 0mph
Humidity: 93%   Direction: NA
Pressure: 30.12"   Gusts: NA
Location:  42.9446°N, 82.6827°W
Report Text: KPHN 301216Z AUTO 00000KT 10SM CLR 00/M01 A3012 RMK AO2
Loading
Personal Weather Stations






























Interactive Weather Map
Tropical Storm Tracking
New forecast layout! Learn more

10-Day Weather Forecast

Advertisements
Track Severe Weather on mobile